Time;durP1;ratioP1;P1;durP2;ratioP2;P2;SDS_P1;SDS_P2;PMS_P1;PMS_P2;Temp;Humidity;BMP_temperature;BMP_pressure;BME280_temperature;BME280_humidity;BME280_pressure;Samples;Min_cycle;Max_cycle;Signal;HPM_P1;HPM_P2
2022/07/19 00:00:07;;;;;;;4.75;2.20;;;;;;;19.95;51.33;101478.53;5063353;28;20068;-68
2022/07/19 00:02:33;;;;;;;11.90;2.35;;;;;;;19.81;51.08;101468.09;5047423;28;20076;-68
2022/07/19 00:05:00;;;;;;;8.80;2.00;;;;;;;19.87;51.51;101472.94;5051129;28;20041;-68
2022/07/19 00:07:26;;;;;;;9.23;2.30;;;;;;;19.88;51.08;101472.81;5059038;28;20045;-68
2022/07/19 00:09:52;;;;;;;5.10;2.13;;;;;;;19.81;51.38;101476.06;5065907;28;20102;-68
2022/07/19 00:12:19;;;;;;;5.05;1.90;;;;;;;19.74;52.28;101474.88;5067472;28;20098;-68
2022/07/19 00:14:46;;;;;;;10.05;2.20;;;;;;;19.72;52.52;101474.16;5058266;28;20045;-68
2022/07/19 00:17:13;;;;;;;5.30;2.20;;;;;;;19.80;52.80;101466.41;5047119;28;20424;-68
2022/07/19 00:19:39;;;;;;;4.47;2.10;;;;;;;19.82;52.78;101475.13;5047925;28;20048;-68
2022/07/19 00:22:06;;;;;;;3.60;1.98;;;;;;;19.87;52.09;101471.13;5048598;28;20044;-68
2022/07/19 00:24:32;;;;;;;9.40;2.10;;;;;;;19.40;53.27;101469.47;5046002;28;20049;-68
2022/07/19 00:26:59;;;;;;;7.20;2.42;;;;;;;19.06;54.32;101467.72;5048600;28;20416;-68
2022/07/19 00:29:25;;;;;;;5.13;1.83;;;;;;;18.96;54.28;101458.72;5056525;28;21598;-68
2022/07/19 00:31:53;;;;;;;11.45;2.28;;;;;;;18.99;54.41;101455.84;5064994;28;20076;-68
2022/07/19 00:34:19;;;;;;;8.20;2.00;;;;;;;18.93;54.59;101451.81;5067086;28;20581;-68
2022/07/19 00:36:46;;;;;;;9.10;2.03;;;;;;;18.84;55.25;101463.16;5067003;28;20098;-68
2022/07/19 00:39:12;;;;;;;4.88;2.10;;;;;;;18.75;55.11;101452.34;5068100;28;20044;-68
2022/07/19 00:41:42;;;;;;;9.75;2.33;;;;;;;18.70;53.91;101451.88;5068251;28;20074;-68
2022/07/19 00:44:10;;;;;;;5.63;2.30;;;;;;;18.93;54.24;101450.97;5067682;28;20854;-68
2022/07/19 00:46:37;;;;;;;8.73;2.63;;;;;;;18.83;54.99;101453.50;5053479;28;20053;-68
2022/07/19 00:49:06;;;;;;;4.70;1.98;;;;;;;18.92;54.28;101444.81;5065696;28;20110;-68
2022/07/19 00:51:35;;;;;;;6.15;2.17;;;;;;;18.91;54.53;101447.59;5048264;28;20067;-68
2022/07/19 00:54:03;;;;;;;4.45;2.22;;;;;;;19.00;54.27;101449.53;5045527;28;20049;-68
2022/07/19 00:56:32;;;;;;;7.28;1.92;;;;;;;18.78;55.32;101452.97;5047077;28;20098;-68
2022/07/19 00:59:02;;;;;;;6.50;1.90;;;;;;;19.01;54.41;101447.75;5046582;28;20033;-68
2022/07/19 01:01:29;;;;;;;8.48;2.10;;;;;;;19.27;54.26;101458.09;5046605;28;20653;-68
2022/07/19 01:03:57;;;;;;;7.72;2.63;;;;;;;19.38;53.94;101452.78;5064353;28;20511;-68
2022/07/19 01:06:24;;;;;;;5.70;2.30;;;;;;;19.47;53.19;101450.44;5067516;28;20377;-68
2022/07/19 01:08:51;;;;;;;14.93;2.58;;;;;;;19.44;52.95;101449.69;5066386;28;20098;-68
2022/07/19 01:11:17;;;;;;;7.20;2.13;;;;;;;19.53;53.17;101456.13;5065024;28;20048;-68
2022/07/19 01:13:44;;;;;;;5.00;2.15;;;;;;;19.55;53.16;101451.50;5066683;28;20049;-68
2022/07/19 01:16:10;;;;;;;11.80;2.20;;;;;;;19.53;53.08;101457.91;5065329;28;20054;-68
2022/07/19 01:18:36;;;;;;;5.35;2.03;;;;;;;19.58;52.86;101450.44;5052837;28;20480;-68
2022/07/19 01:21:04;;;;;;;3.50;1.85;;;;;;;19.48;53.34;101460.09;5052687;28;20045;-68
2022/07/19 01:23:32;;;;;;;4.38;1.77;;;;;;;19.55;52.69;101456.81;5066001;28;20499;-68
2022/07/19 01:25:58;;;;;;;6.30;2.17;;;;;;;19.54;52.97;101451.66;5045673;28;20110;-68
2022/07/19 01:28:25;;;;;;;7.75;2.13;;;;;;;19.49;52.99;101453.81;5046814;28;20053;-68
2022/07/19 01:30:51;;;;;;;5.00;2.40;;;;;;;19.53;52.54;101447.28;5045336;28;20044;-68
2022/07/19 01:33:18;;;;;;;4.05;2.15;;;;;;;19.29;53.05;101453.50;5046192;28;20725;-68
2022/07/19 01:35:44;;;;;;;11.57;3.35;;;;;;;19.41;52.68;101452.59;5047098;28;20040;-68
2022/07/19 01:38:10;;;;;;;5.82;1.90;;;;;;;19.28;52.96;101449.16;5045383;28;20497;-67
2022/07/19 01:40:38;;;;;;;7.85;2.45;;;;;;;19.07;53.28;101450.78;5045056;28;20071;-67
2022/07/19 01:43:04;;;;;;;6.55;2.05;;;;;;;19.20;52.71;101456.03;5046208;28;20102;-67
2022/07/19 01:45:31;;;;;;;7.60;2.22;;;;;;;19.26;52.84;101460.84;5045460;28;20045;-67
2022/07/19 01:47:57;;;;;;;12.63;2.20;;;;;;;19.37;52.63;101453.75;5046765;28;20041;-67
2022/07/19 01:50:23;;;;;;;6.88;2.10;;;;;;;19.46;51.98;101457.56;5046626;28;20065;-67
2022/07/19 01:52:50;;;;;;;8.90;2.03;;;;;;;19.52;51.89;101451.75;5046165;28;20045;-67
2022/07/19 01:55:16;;;;;;;13.25;2.78;;;;;;;19.42;52.15;101454.28;5045675;28;20451;-67
2022/07/19 01:57:44;;;;;;;6.25;2.42;;;;;;;19.31;52.52;101454.25;5046428;28;20293;-67
2022/07/19 02:00:11;;;;;;;4.68;2.28;;;;;;;18.99;53.35;101444.38;5045864;28;20095;-67
2022/07/19 02:02:37;;;;;;;10.45;2.13;;;;;;;18.67;54.29;101446.75;5045233;28;20507;-68
2022/07/19 02:05:04;;;;;;;7.70;2.78;;;;;;;18.68;54.52;101446.66;5046397;28;20480;-68
2022/07/19 02:07:31;;;;;;;5.82;2.17;;;;;;;18.74;54.35;101442.69;5044867;28;20737;-68
2022/07/19 02:09:57;;;;;;;7.00;2.40;;;;;;;18.68;54.65;101440.50;5045174;28;20045;-68
2022/07/19 02:12:24;;;;;;;8.20;2.00;;;;;;;18.74;54.29;101440.03;5046647;28;20055;-68
2022/07/19 02:14:52;;;;;;;8.05;2.35;;;;;;;18.64;54.86;101434.56;5046076;28;20091;-68
2022/07/19 02:17:18;;;;;;;6.85;2.63;;;;;;;18.58;54.97;101437.69;5047516;28;20549;-68
2022/07/19 02:19:45;;;;;;;5.53;2.17;;;;;;;18.39;55.68;101440.81;5049557;28;20095;-68
2022/07/19 02:22:11;;;;;;;6.25;2.60;;;;;;;18.53;55.18;101438.97;5049932;28;20045;-68
2022/07/19 02:24:38;;;;;;;6.45;2.42;;;;;;;18.45;55.33;101440.34;5050019;28;20044;-68
2022/07/19 02:27:04;;;;;;;11.82;3.50;;;;;;;18.35;55.96;101439.34;5049858;28;20094;-68
2022/07/19 02:29:31;;;;;;;9.27;2.40;;;;;;;18.37;56.02;101436.56;5048498;28;20120;-68
2022/07/19 02:31:58;;;;;;;8.68;2.30;;;;;;;18.33;56.06;101441.25;5050258;28;20100;-68
2022/07/19 02:34:25;;;;;;;8.38;2.20;;;;;;;18.42;56.19;101445.03;5054870;28;20072;-68
2022/07/19 02:36:51;;;;;;;6.57;2.55;;;;;;;18.47;55.33;101432.28;5068109;28;20116;-68
2022/07/19 02:39:17;;;;;;;5.60;2.22;;;;;;;18.55;55.15;101443.19;5069623;28;20049;-68
2022/07/19 02:41:44;;;;;;;10.95;2.08;;;;;;;18.65;55.10;101438.06;5068836;28;20458;-68
2022/07/19 02:44:11;;;;;;;8.88;2.40;;;;;;;18.39;55.51;101446.13;5068936;28;20044;-68
2022/07/19 02:46:37;;;;;;;5.82;2.20;;;;;;;18.30;55.95;101443.28;5069909;28;20462;-68
2022/07/19 02:49:05;;;;;;;7.32;3.05;;;;;;;18.36;55.74;101438.38;5068271;28;20114;-68
2022/07/19 02:51:31;;;;;;;6.80;2.22;;;;;;;18.55;54.66;101442.38;5056264;28;20111;-68
2022/07/19 02:53:58;;;;;;;4.93;2.30;;;;;;;18.66;54.47;101448.56;5069960;28;20059;-68
2022/07/19 02:56:24;;;;;;;4.50;2.10;;;;;;;18.57;54.63;101445.75;5048969;28;20110;-68
2022/07/19 02:58:50;;;;;;;5.72;2.63;;;;;;;18.47;54.86;101457.03;5048991;28;20106;-68
2022/07/19 03:01:17;;;;;;;6.32;2.67;;;;;;;18.23;55.93;101456.16;5049886;28;20057;-68
2022/07/19 03:03:47;;;;;;;9.00;3.30;;;;;;;17.93;57.48;101459.19;5048117;28;20065;-68
2022/07/19 03:06:16;;;;;;;4.43;2.42;;;;;;;17.94;57.29;101460.03;5048755;28;20044;-68
2022/07/19 03:08:42;;;;;;;5.90;2.50;;;;;;;18.06;56.90;101453.88;5049412;28;20095;-68
2022/07/19 03:11:09;;;;;;;8.77;2.63;;;;;;;18.24;56.46;101449.03;5070499;28;20098;-68
2022/07/19 03:13:35;;;;;;;6.72;2.67;;;;;;;18.29;56.17;101455.69;5068268;28;20049;-68
2022/07/19 03:16:02;;;;;;;4.43;2.45;;;;;;;18.38;55.50;101456.84;5069655;28;20041;-68
2022/07/19 03:18:28;;;;;;;9.05;2.45;;;;;;;18.45;55.81;101455.44;5068742;28;20049;-68
2022/07/19 03:20:55;;;;;;;5.82;2.63;;;;;;;18.43;55.47;101452.06;5066983;28;20040;-68
2022/07/19 03:23:23;;;;;;;12.73;3.45;;;;;;;18.31;55.93;101459.09;5068977;28;20048;-68
2022/07/19 03:25:49;;;;;;;8.55;2.40;;;;;;;18.37;55.27;101457.78;5067546;28;20106;-68
2022/07/19 03:28:15;;;;;;;5.47;2.35;;;;;;;18.32;56.23;101459.97;5062393;28;20045;-68
2022/07/19 03:30:42;;;;;;;4.70;2.20;;;;;;;18.35;55.98;101460.56;5050148;28;20041;-68
2022/07/19 03:33:09;;;;;;;8.68;2.50;;;;;;;18.38;56.00;101455.03;5047908;28;20069;-68
2022/07/19 03:35:35;;;;;;;7.85;2.45;;;;;;;18.42;56.16;101468.94;5048136;28;20707;-68
2022/07/19 03:38:01;;;;;;;6.47;2.35;;;;;;;18.32;56.45;101466.13;5048298;28;20071;-68
2022/07/19 03:40:29;;;;;;;8.05;2.70;;;;;;;18.29;57.00;101466.31;5054269;28;20078;-68
2022/07/19 03:42:55;;;;;;;5.32;2.72;;;;;;;18.25;56.84;101467.53;5067907;28;20097;-68
2022/07/19 03:45:22;;;;;;;6.38;2.47;;;;;;;18.16;57.04;101462.00;5069121;28;20052;-68
2022/07/19 03:47:48;;;;;;;11.02;2.72;;;;;;;17.52;59.26;101455.91;5067436;28;20041;-68
2022/07/19 03:50:14;;;;;;;12.02;2.90;;;;;;;17.33;59.97;101458.97;5068168;28;20040;-68
2022/07/19 03:52:41;;;;;;;5.15;2.00;;;;;;;17.38;60.06;101454.22;5050648;28;20049;-68
2022/07/19 03:55:08;;;;;;;8.82;2.60;;;;;;;17.19;61.08;101456.41;5053516;28;20095;-68
2022/07/19 03:57:35;;;;;;;20.67;3.20;;;;;;;17.29;60.98;101456.66;5054170;28;20075;-68
2022/07/19 04:00:02;;;;;;;6.25;2.50;;;;;;;17.56;60.42;101467.13;5059807;28;20044;-68
2022/07/19 04:02:28;;;;;;;7.47;3.92;;;;;;;17.79;59.79;101461.13;5066904;28;20044;-68
2022/07/19 04:04:55;;;;;;;8.68;2.58;;;;;;;18.07;58.72;101462.69;5068640;28;20044;-68
2022/07/19 04:07:21;;;;;;;8.95;2.65;;;;;;;18.25;57.95;101459.56;5068498;28;20090;-68
2022/07/19 04:09:47;;;;;;;7.70;2.60;;;;;;;18.22;57.80;101462.41;5067129;28;20075;-68
2022/07/19 04:12:14;;;;;;;7.00;2.33;;;;;;;18.36;57.49;101467.59;5068306;28;20126;-68
2022/07/19 04:14:41;;;;;;;7.05;2.63;;;;;;;18.51;57.17;101460.34;5066961;28;20120;-68
2022/07/19 04:17:08;;;;;;;7.07;2.72;;;;;;;18.67;56.99;101454.72;5067401;28;20076;-68
2022/07/19 04:19:35;;;;;;;5.85;2.15;;;;;;;18.83;56.87;101460.59;5068271;28;20052;-68
2022/07/19 04:22:01;;;;;;;5.28;2.40;;;;;;;18.86;58.11;101463.03;5077300;28;20044;-68
2022/07/19 04:24:27;;;;;;;9.82;2.85;;;;;;;18.89;59.14;101460.13;5086735;28;20121;-68
2022/07/19 04:26:54;;;;;;;7.05;2.40;;;;;;;19.04;58.48;101461.66;5067911;28;20488;-68
2022/07/19 04:29:20;;;;;;;5.45;3.10;;;;;;;19.12;58.70;101464.56;5066854;28;20113;-68
2022/07/19 04:31:48;;;;;;;7.32;2.97;;;;;;;19.30;57.51;101470.28;5067759;28;20045;-68
2022/07/19 04:34:14;;;;;;;5.85;3.22;;;;;;;19.38;56.69;101465.25;5067696;28;20048;-68
2022/07/19 04:36:40;;;;;;;7.97;2.80;;;;;;;19.53;56.21;101471.22;5058146;28;20045;-68
2022/07/19 04:39:07;;;;;;;10.35;2.85;;;;;;;19.66;56.00;101466.66;5066372;28;20044;-68
2022/07/19 04:41:33;;;;;;;11.38;2.75;;;;;;;19.55;57.07;101471.97;5066799;28;20404;-68
2022/07/19 04:43:59;;;;;;;8.57;3.25;;;;;;;19.78;56.21;101471.84;5066832;28;20037;-68
2022/07/19 04:46:26;;;;;;;9.27;3.03;;;;;;;19.79;56.93;101475.38;5065442;28;20082;-68
2022/07/19 04:48:54;;;;;;;8.20;3.25;;;;;;;20.04;56.67;101482.25;5066885;28;20121;-68
2022/07/19 04:51:20;;;;;;;8.05;3.30;;;;;;;20.10;56.03;101477.28;5047876;28;20459;-68
2022/07/19 04:53:47;;;;;;;6.13;3.03;;;;;;;20.24;55.55;101490.34;5048343;28;20393;-68
2022/07/19 04:56:13;;;;;;;6.20;3.03;;;;;;;20.32;54.66;101485.25;5055923;28;20090;-68
2022/07/19 04:58:39;;;;;;;6.68;3.03;;;;;;;20.43;55.33;101478.25;5062069;28;20045;-68
2022/07/19 05:01:06;;;;;;;6.65;2.92;;;;;;;20.68;53.89;101486.78;5065314;28;20048;-68
2022/07/19 05:03:32;;;;;;;9.65;3.13;;;;;;;21.02;52.14;101486.66;5068249;28;20099;-68
2022/07/19 05:06:00;;;;;;;10.13;2.72;;;;;;;21.35;50.83;101476.69;5066309;28;20056;-68
2022/07/19 05:08:27;;;;;;;5.43;2.83;;;;;;;21.13;50.35;101478.63;5066108;28;20067;-68
2022/07/19 05:10:53;;;;;;;10.32;3.00;;;;;;;21.27;50.53;101484.47;5067007;28;20044;-68
2022/07/19 05:13:19;;;;;;;12.60;3.00;;;;;;;21.62;49.18;101484.13;5065434;28;20086;-68
2022/07/19 05:15:46;;;;;;;9.35;2.90;;;;;;;21.71;48.88;101488.69;5066803;28;20078;-68
2022/07/19 05:18:12;;;;;;;5.38;2.80;;;;;;;21.79;49.28;101493.34;5052220;28;20048;-68
2022/07/19 05:20:39;;;;;;;11.48;3.15;;;;;;;22.11;48.37;101483.41;5046224;28;20052;-68
2022/07/19 05:23:07;;;;;;;8.45;2.50;;;;;;;22.44;46.96;101484.88;5054005;28;20094;-68
2022/07/19 05:25:33;;;;;;;10.13;2.35;;;;;;;22.02;46.03;101478.03;5069333;28;20044;-68
2022/07/19 05:28:00;;;;;;;3.65;2.10;;;;;;;22.14;46.37;101485.78;5066483;28;20036;-67
2022/07/19 05:30:26;;;;;;;11.02;2.15;;;;;;;22.02;46.35;101494.91;5066602;28;20067;-67
2022/07/19 05:32:53;;;;;;;6.97;2.47;;;;;;;22.17;46.50;101488.19;5066016;28;20461;-67
2022/07/19 05:35:19;;;;;;;6.97;2.40;;;;;;;22.69;45.16;101494.25;5065707;28;20044;-67
2022/07/19 05:37:45;;;;;;;15.30;2.63;;;;;;;23.20;44.32;101486.81;5067539;28;20048;-67
2022/07/19 05:40:13;;;;;;;8.73;2.65;;;;;;;23.67;43.35;101486.88;5065282;28;20117;-68
2022/07/19 05:42:40;;;;;;;9.70;2.70;;;;;;;23.08;44.68;101487.94;5065071;28;20480;-68
2022/07/19 05:45:07;;;;;;;9.32;2.80;;;;;;;23.59;44.74;101479.56;5067060;28;20049;-68
2022/07/19 05:47:34;;;;;;;7.80;2.20;;;;;;;24.01;44.17;101485.34;5066042;28;20101;-67
2022/07/19 05:50:00;;;;;;;9.43;2.65;;;;;;;24.38;42.19;101490.69;5060920;28;20060;-67
2022/07/19 05:52:26;;;;;;;12.57;3.58;;;;;;;24.36;41.71;101489.97;5049177;28;20045;-67
2022/07/19 05:54:53;;;;;;;7.10;3.10;;;;;;;24.41;43.86;101492.22;5051412;28;20049;-67
2022/07/19 05:57:20;;;;;;;5.82;2.55;;;;;;;24.74;41.88;101494.25;5048388;28;20075;-67
2022/07/19 05:59:47;;;;;;;10.85;2.13;;;;;;;25.16;40.95;101494.50;5050972;28;20045;-67
2022/07/19 06:02:14;;;;;;;5.38;2.28;;;;;;;25.85;39.73;101489.13;5049954;28;20040;-67
2022/07/19 06:04:41;;;;;;;7.95;2.45;;;;;;;26.44;39.15;101482.00;5050995;28;20041;-68
2022/07/19 06:07:07;;;;;;;7.20;2.20;;;;;;;26.08;38.51;101492.94;5050807;28;20401;-67
2022/07/19 06:09:33;;;;;;;4.63;2.05;;;;;;;26.43;38.42;101501.81;5048551;28;20052;-67
2022/07/19 06:12:00;;;;;;;3.80;2.08;;;;;;;26.04;38.33;101494.25;5050292;28;20053;-67
2022/07/19 06:14:27;;;;;;;8.32;2.85;;;;;;;25.96;37.96;101496.91;5049554;28;20044;-67
2022/07/19 06:16:54;;;;;;;6.50;2.47;;;;;;;26.32;39.01;101491.34;5048544;28;20060;-67
2022/07/19 06:19:21;;;;;;;8.35;2.72;;;;;;;27.31;36.28;101486.81;5049236;28;20511;-67
2022/07/19 06:21:47;;;;;;;7.55;3.20;;;;;;;27.82;36.56;101486.41;5065182;28;20059;-67
2022/07/19 06:24:13;;;;;;;8.45;2.42;;;;;;;28.47;34.13;101492.38;5069252;28;20067;-67
2022/07/19 06:26:40;;;;;;;6.13;2.08;;;;;;;28.62;34.12;101492.47;5059547;28;20044;-67
2022/07/19 06:29:06;;;;;;;7.50;2.40;;;;;;;29.07;33.24;101485.41;5053903;28;20677;-67
2022/07/19 06:31:34;;;;;;;6.07;2.28;;;;;;;30.07;31.16;101490.34;5068375;28;20102;-67
2022/07/19 06:34:00;;;;;;;7.55;2.40;;;;;;;29.71;31.51;101490.22;5070334;28;20620;-67
2022/07/19 06:36:27;;;;;;;10.45;2.30;;;;;;;29.44;31.69;101486.28;5070589;28;20109;-67
2022/07/19 06:38:53;;;;;;;7.28;2.50;;;;;;;29.41;32.28;101489.38;5068986;28;20045;-67
2022/07/19 06:41:20;;;;;;;7.78;2.70;;;;;;;28.64;33.98;101490.41;5069312;28;20045;-67
2022/07/19 06:43:46;;;;;;;9.65;2.10;;;;;;;29.22;32.13;101497.09;5068941;28;20051;-67
2022/07/19 06:46:12;;;;;;;3.65;2.05;;;;;;;30.10;31.44;101497.25;5068748;28;20040;-67
2022/07/19 06:48:40;;;;;;;10.35;2.28;;;;;;;31.01;31.78;101496.66;5070560;28;20102;-67
2022/07/19 06:51:08;;;;;;;6.70;2.20;;;;;;;31.42;31.05;101481.38;5067887;28;20374;-67
2022/07/19 06:53:34;;;;;;;7.38;2.30;;;;;;;31.64;29.78;101487.59;5068970;28;20044;-67
2022/07/19 06:56:01;;;;;;;7.20;2.20;;;;;;;31.62;28.63;101485.09;5069545;28;20407;-67
2022/07/19 06:58:28;;;;;;;8.05;2.38;;;;;;;31.83;28.51;101492.31;5067983;28;20474;-67
2022/07/19 07:00:55;;;;;;;10.23;2.33;;;;;;;31.72;32.08;101496.41;5069097;28;20044;-67
2022/07/19 07:03:21;;;;;;;7.28;2.72;;;;;;;32.02;31.03;101491.59;5069670;28;20070;-67
2022/07/19 07:05:49;;;;;;;10.50;2.60;;;;;;;32.41;30.63;101490.91;5069211;28;20407;-67
2022/07/19 07:08:15;;;;;;;5.70;2.83;;;;;;;32.75;29.82;101492.72;5067894;28;20063;-67
2022/07/19 07:10:42;;;;;;;6.20;2.50;;;;;;;32.92;29.56;101490.47;5068640;28;20045;-67
2022/07/19 07:13:08;;;;;;;7.60;2.70;;;;;;;33.27;29.04;101489.22;5068804;28;20098;-67
2022/07/19 07:15:35;;;;;;;7.78;2.70;;;;;;;33.00;28.33;101487.53;5068125;28;20118;-67
2022/07/19 07:18:01;;;;;;;7.60;2.67;;;;;;;32.85;30.32;101489.63;5052261;28;20045;-67
2022/07/19 07:20:27;;;;;;;7.95;2.55;;;;;;;33.15;29.42;101489.03;5056729;28;20099;-67
2022/07/19 07:22:55;;;;;;;7.68;2.50;;;;;;;33.40;27.71;101491.97;5048180;28;20069;-67
2022/07/19 07:25:21;;;;;;;5.60;2.95;;;;;;;33.48;30.20;101490.91;5049985;28;20125;-67
2022/07/19 07:27:48;;;;;;;6.50;2.75;;;;;;;33.43;28.82;101485.25;5050618;28;20090;-67
2022/07/19 07:30:14;;;;;;;7.53;3.10;;;;;;;33.67;27.94;101482.72;5047795;28;20045;-67
2022/07/19 07:32:40;;;;;;;7.75;3.10;;;;;;;33.91;28.61;101489.38;5049679;28;20045;-67
2022/07/19 07:35:07;;;;;;;6.03;2.75;;;;;;;33.78;30.13;101486.66;5047204;28;20550;-67
2022/07/19 07:37:33;;;;;;;7.85;2.95;;;;;;;34.20;29.17;101488.03;5049009;28;20044;-67
2022/07/19 07:40:01;;;;;;;8.05;3.17;;;;;;;34.46;25.42;101489.78;5048369;28;20098;-67
2022/07/19 07:42:28;;;;;;;9.95;3.03;;;;;;;34.54;29.42;101493.09;5047648;28;20098;-67
2022/07/19 07:44:54;;;;;;;18.20;2.85;;;;;;;34.69;26.42;101492.84;5047652;28;20103;-67
2022/07/19 07:47:20;;;;;;;5.32;2.55;;;;;;;34.96;26.95;101482.59;5049011;28;20508;-67
2022/07/19 07:49:48;;;;;;;19.65;3.38;;;;;;;35.29;27.14;101483.19;5047290;28;20068;-67
2022/07/19 07:52:14;;;;;;;12.82;2.58;;;;;;;35.34;26.03;101488.78;5049150;28;20044;-67
2022/07/19 07:54:41;;;;;;;7.15;2.78;;;;;;;35.13;25.93;101490.03;5060908;28;21939;-67
2022/07/19 07:57:09;;;;;;;14.57;3.70;;;;;;;34.45;26.71;101490.84;5052475;28;20098;-67
2022/07/19 07:59:36;;;;;;;9.13;2.35;;;;;;;34.86;27.53;101498.56;5068707;28;20062;-67
2022/07/19 08:02:02;;;;;;;7.65;2.50;;;;;;;34.92;26.79;101492.25;5064405;28;20056;-67
2022/07/19 08:04:29;;;;;;;7.18;2.90;;;;;;;35.23;29.20;101484.06;5066668;28;20101;-67
2022/07/19 08:06:55;;;;;;;8.63;3.10;;;;;;;35.49;26.34;101472.91;5069215;28;20098;-67
2022/07/19 08:09:22;;;;;;;12.43;2.90;;;;;;;35.88;24.26;101479.88;5067735;28;20049;-67
2022/07/19 08:11:48;;;;;;;8.90;2.88;;;;;;;36.07;25.35;101486.13;5068130;28;20550;-67
2022/07/19 08:14:16;;;;;;;7.28;2.60;;;;;;;36.19;26.35;101481.59;5067368;28;20094;-67
2022/07/19 08:16:42;;;;;;;7.72;2.60;;;;;;;36.44;22.18;101479.56;5067587;28;20049;-67
2022/07/19 08:19:08;;;;;;;4.53;2.40;;;;;;;36.76;25.15;101484.81;5066355;28;20393;-67
2022/07/19 08:21:35;;;;;;;8.68;2.70;;;;;;;36.70;26.10;101477.56;5061400;28;20041;-67
2022/07/19 08:24:01;;;;;;;10.45;2.60;;;;;;;36.14;21.93;101476.00;5049052;28;20142;-67
2022/07/19 08:26:30;;;;;;;9.43;2.67;;;;;;;36.14;23.18;101477.91;5057537;28;20076;-67
2022/07/19 08:28:56;;;;;;;4.22;2.50;;;;;;;36.68;26.88;101479.69;5056673;28;20047;-67
2022/07/19 08:31:24;;;;;;;9.55;2.92;;;;;;;37.03;24.49;101475.97;5066326;28;20045;-67
2022/07/19 08:33:50;;;;;;;10.73;2.83;;;;;;;37.32;21.73;101468.78;5067309;28;20557;-67
2022/07/19 08:36:16;;;;;;;11.02;2.65;;;;;;;37.63;23.17;101459.38;5067926;28;20106;-67
2022/07/19 08:38:43;;;;;;;9.07;2.53;;;;;;;37.68;23.56;101461.38;5065827;28;20110;-67
2022/07/19 08:41:09;;;;;;;9.98;2.38;;;;;;;38.06;23.59;101469.91;5065934;28;20040;-67
2022/07/19 08:43:36;;;;;;;7.90;2.08;;;;;;;38.41;22.20;101467.88;5068483;28;20123;-67
2022/07/19 08:46:03;;;;;;;11.63;2.97;;;;;;;38.79;24.07;101469.09;5067555;28;20109;-67
2022/07/19 08:48:34;;;;;;;8.93;3.05;;;;;;;38.83;24.50;101464.81;5061386;28;20496;-67
2022/07/19 08:51:01;;;;;;;7.35;2.58;;;;;;;38.37;21.46;101466.69;5054463;28;20045;-67
2022/07/19 08:53:31;;;;;;;9.57;2.75;;;;;;;38.26;21.18;101463.97;5046741;28;20137;-67
2022/07/19 08:55:57;;;;;;;4.00;2.35;;;;;;;37.65;20.97;101456.41;5045582;28;20047;-67
2022/07/19 08:58:23;;;;;;;10.73;2.40;;;;;;;37.85;22.65;101457.66;5047351;28;20041;-67
2022/07/19 09:00:49;;;;;;;16.70;2.65;;;;;;;38.23;22.64;101468.03;5065033;28;20846;-67
2022/07/19 09:03:16;;;;;;;7.28;2.60;;;;;;;38.38;21.39;101454.66;5073958;28;20048;-67
2022/07/19 09:05:44;;;;;;;7.38;2.30;;;;;;;38.23;20.34;101457.09;5076137;28;20037;-67
2022/07/19 09:08:12;;;;;;;8.77;2.40;;;;;;;37.84;22.89;101452.44;5076104;28;20109;-67
2022/07/19 09:10:41;;;;;;;6.70;2.72;;;;;;;37.84;23.24;101461.47;5075513;28;20070;-67
2022/07/19 09:13:11;;;;;;;9.68;2.28;;;;;;;38.37;21.65;101458.44;5077837;28;20066;-67
2022/07/19 09:15:43;;;;;;;12.45;2.47;;;;;;;38.56;20.01;101466.50;5050985;28;20459;-67
2022/07/19 09:18:12;;;;;;;6.90;2.45;;;;;;;38.94;19.48;101463.91;5046248;28;20049;-67
2022/07/19 09:20:39;;;;;;;12.35;2.40;;;;;;;38.29;19.28;101463.47;5065383;28;20040;-67
2022/07/19 09:23:08;;;;;;;12.77;2.67;;;;;;;38.76;18.90;101461.38;5047847;28;20118;-67
2022/07/19 09:25:36;;;;;;;4.45;2.45;;;;;;;39.13;19.82;101459.84;5064755;28;20056;-67
2022/07/19 09:28:03;;;;;;;4.00;2.42;;;;;;;39.57;21.93;101452.56;5066624;28;20044;-67
2022/07/19 09:30:39;;;;;;;8.32;2.70;;;;;;;39.38;19.33;101457.50;5065576;28;20483;-67
2022/07/19 09:33:16;;;;;;;5.43;2.08;;;;;;;39.13;19.43;101459.00;5065686;28;20041;-67
2022/07/19 09:35:45;;;;;;;8.02;2.10;;;;;;;39.30;20.67;101455.19;5067200;28;20133;-67
2022/07/19 09:38:36;;;;;;;16.88;2.78;;;;;;;39.94;16.53;101449.22;5055205;28;20465;-67
2022/07/19 09:41:13;;;;;;;4.90;2.17;;;;;;;40.12;16.01;101446.97;5055094;28;20059;-67
2022/07/19 09:43:50;;;;;;;5.30;2.30;;;;;;;39.46;17.12;101441.69;5065899;28;20040;-67
2022/07/19 09:46:29;;;;;;;5.75;2.10;;;;;;;39.34;18.44;101450.88;5066209;28;20045;-67
2022/07/19 09:49:03;;;;;;;7.60;2.45;;;;;;;39.54;21.28;101442.09;5064518;28;20040;-67
2022/07/19 09:51:30;;;;;;;8.32;2.85;;;;;;;39.29;19.61;101441.72;5065409;28;20072;-67
2022/07/19 09:53:58;;;;;;;6.50;2.25;;;;;;;39.06;19.07;101442.72;5070690;28;20109;-67
2022/07/19 09:56:25;;;;;;;6.80;2.38;;;;;;;39.74;21.01;101439.63;5064388;28;20057;-67
2022/07/19 09:58:53;;;;;;;8.15;2.35;;;;;;;39.98;21.57;101433.88;5064665;28;20048;-67
2022/07/19 10:01:19;;;;;;;5.45;2.03;;;;;;;40.23;22.53;101436.94;5065754;28;20454;-67
2022/07/19 10:03:46;;;;;;;5.63;2.03;;;;;;;40.52;16.94;101432.81;5065798;28;20084;-67
2022/07/19 10:06:12;;;;;;;6.03;2.35;;;;;;;40.46;18.22;101433.03;5065512;28;20036;-67
2022/07/19 10:08:39;;;;;;;7.72;2.40;;;;;;;40.62;18.56;101432.94;5067060;28;20040;-67
2022/07/19 10:11:07;;;;;;;13.98;2.42;;;;;;;40.74;19.03;101424.53;5066323;28;20454;-67
2022/07/19 10:13:33;;;;;;;5.20;1.80;;;;;;;41.14;18.59;101422.09;5065170;28;20041;-67
2022/07/19 10:16:01;;;;;;;7.40;2.10;;;;;;;40.87;18.28;101420.50;5067031;28;20071;-67
2022/07/19 10:18:36;;;;;;;5.15;1.90;;;;;;;40.79;15.41;101413.56;5065586;28;20416;-67
2022/07/19 10:21:03;;;;;;;5.53;2.10;;;;;;;40.78;20.56;101415.50;5064089;28;20040;-67
2022/07/19 10:23:31;;;;;;;5.53;2.10;;;;;;;40.87;17.93;101415.84;5045141;28;20065;-67
2022/07/19 10:25:57;;;;;;;9.20;1.77;;;;;;;40.96;17.84;101411.50;5054177;28;20044;-67
2022/07/19 10:28:31;;;;;;;8.20;1.90;;;;;;;40.09;16.33;101403.53;5065420;28;20044;-67
2022/07/19 10:30:57;;;;;;;3.13;1.80;;;;;;;40.16;15.24;101404.19;5066163;28;20045;-67
2022/07/19 10:33:30;;;;;;;2.95;1.70;;;;;;;40.11;20.53;101395.84;5067319;28;20461;-67
2022/07/19 10:35:57;;;;;;;4.05;1.75;;;;;;;40.57;16.88;101397.19;5065784;28;20048;-67
2022/07/19 10:38:23;;;;;;;5.22;2.00;;;;;;;40.94;17.31;101397.19;5067527;28;20106;-67
2022/07/19 10:40:52;;;;;;;7.38;1.92;;;;;;;40.77;15.98;101388.25;5068015;28;20040;-67
2022/07/19 10:43:20;;;;;;;5.53;1.50;;;;;;;40.69;15.21;101395.06;5069884;28;20051;-67
2022/07/19 10:46:10;;;;;;;6.97;1.90;;;;;;;40.26;15.78;101393.28;5069923;28;20048;-67
2022/07/19 10:48:38;;;;;;;4.18;2.00;;;;;;;40.68;20.47;101390.66;5057409;28;20037;-67
2022/07/19 10:51:04;;;;;;;3.97;2.13;;;;;;;41.07;15.62;101383.00;5048588;28;20107;-67
2022/07/19 10:53:59;;;;;;;6.85;2.25;;;;;;;41.04;18.85;101383.53;5048789;28;20049;-67
2022/07/19 10:56:59;;;;;;;6.43;2.00;;;;;;;41.13;18.86;101379.16;5057003;28;20048;-67
2022/07/19 10:59:35;;;;;;;5.28;1.90;;;;;;;41.40;16.64;101378.22;5058381;28;20045;-67
2022/07/19 11:02:04;;;;;;;7.07;1.73;;;;;;;41.47;16.39;101374.13;5060983;28;20052;-67
2022/07/19 11:04:33;;;;;;;5.53;2.05;;;;;;;41.55;20.08;101375.56;5063170;28;20062;-67
2022/07/19 11:07:14;;;;;;;8.93;2.05;;;;;;;40.58;14.77;101367.78;5057505;28;20045;-67
2022/07/19 11:09:47;;;;;;;5.15;1.70;;;;;;;41.38;18.16;101361.97;5055888;28;20127;-67
2022/07/19 11:12:38;;;;;;;7.93;1.83;;;;;;;41.51;15.38;101360.66;5060777;28;20556;-67
2022/07/19 11:15:07;;;;;;;3.60;1.60;;;;;;;41.75;17.13;101354.44;5068256;28;20105;-67
2022/07/19 11:17:35;;;;;;;4.50;1.50;;;;;;;41.68;17.87;101358.53;5068946;28;20044;-67
2022/07/19 11:20:07;;;;;;;8.32;1.50;;;;;;;42.01;16.92;101358.09;5057062;28;20044;-67
2022/07/19 11:22:35;;;;;;;4.38;1.60;;;;;;;41.56;14.87;101358.78;5063491;28;20060;-67
2022/07/19 11:25:04;;;;;;;8.63;1.98;;;;;;;41.78;12.92;101351.13;5049680;28;20098;-67